createdAt,value
2022-08-28T00:03:36.267Z,100.00
2022-08-28T00:08:40.061Z,100.00
2022-08-28T00:13:41.951Z,100.00
2022-08-28T00:18:43.566Z,100.00
2022-08-28T00:23:50.754Z,100.00
2022-08-28T00:28:52.295Z,100.00
2022-08-28T00:33:53.859Z,100.00
2022-08-28T00:39:00.053Z,100.00
2022-08-28T00:44:21.894Z,100.00
2022-08-28T00:49:29.437Z,100.00
2022-08-28T00:54:35.583Z,100.00
2022-08-28T00:59:38.307Z,100.00
2022-08-28T01:04:40.023Z,100.00
2022-08-28T01:09:44.764Z,100.00
2022-08-28T01:14:49.715Z,100.00
2022-08-28T01:19:58.320Z,100.00
2022-08-28T01:25:03.357Z,100.00
2022-08-28T01:30:05.395Z,100.00
2022-08-28T01:35:14.600Z,100.00
2022-08-28T01:40:22.986Z,100.00
2022-08-28T01:45:25.775Z,100.00
2022-08-28T01:50:27.364Z,100.00
2022-08-28T01:55:29.311Z,100.00
2022-08-28T02:00:31.105Z,100.00
2022-08-28T02:05:33.793Z,100.00
2022-08-28T02:10:37.616Z,100.00
2022-08-28T02:15:40.748Z,100.00
2022-08-28T02:20:42.957Z,100.00
2022-08-28T02:25:44.627Z,100.00
2022-08-28T02:30:46.266Z,100.00
2022-08-28T02:35:48.099Z,100.00
2022-08-28T02:40:49.679Z,100.00
2022-08-28T02:45:51.238Z,100.00
2022-08-28T02:50:58.288Z,100.00
2022-08-28T02:56:01.076Z,100.00
2022-08-28T03:01:07.013Z,100.00
2022-08-28T03:06:09.588Z,100.00
2022-08-28T03:11:12.069Z,100.00
2022-08-28T03:16:13.763Z,100.00
2022-08-28T03:21:15.315Z,100.00
2022-08-28T03:26:20.260Z,100.00
2022-08-28T03:31:25.172Z,100.00
2022-08-28T03:36:28.778Z,100.00
2022-08-28T03:41:31.859Z,100.00
2022-08-28T03:46:34.485Z,100.00
2022-08-28T03:51:36.134Z,100.00
2022-08-28T03:56:41.019Z,100.00
2022-08-28T04:01:42.599Z,100.00
2022-08-28T04:06:44.211Z,100.00
2022-08-28T04:11:45.755Z,100.00
2022-08-28T04:16:49.198Z,100.00
2022-08-28T04:21:50.849Z,100.00
2022-08-28T04:26:54.073Z,100.00
2022-08-28T04:31:58.207Z,100.00
2022-08-28T04:36:59.846Z,100.00
2022-08-28T04:42:01.450Z,100.00
2022-08-28T04:47:03.017Z,100.00
2022-08-28T04:52:07.984Z,100.00
2022-08-28T04:57:09.521Z,100.00
2022-08-28T05:02:11.284Z,100.00
2022-08-28T05:07:12.991Z,100.00
2022-08-28T05:12:17.275Z,100.00
2022-08-28T05:17:18.840Z,100.00
2022-08-28T05:22:20.403Z,100.00
2022-08-28T05:27:23.802Z,100.00
2022-08-28T05:32:25.338Z,100.00
2022-08-28T05:37:27.726Z,100.00
2022-08-28T05:42:30.999Z,100.00
2022-08-28T05:47:33.451Z,100.00
2022-08-28T05:52:35.698Z,100.00
2022-08-28T05:57:37.662Z,100.00
2022-08-28T06:02:40.801Z,100.00
2022-08-28T06:07:43.091Z,100.00
2022-08-28T06:12:44.613Z,100.00
2022-08-28T06:17:46.393Z,100.00
2022-08-28T06:22:50.437Z,100.00
2022-08-28T06:27:51.999Z,100.00
2022-08-28T06:32:54.717Z,100.00
2022-08-28T06:37:56.336Z,100.00
2022-08-28T06:42:57.871Z,100.00
2022-08-28T06:47:59.492Z,100.00
2022-08-28T06:53:01.330Z,100.00
2022-08-28T06:58:03.927Z,100.00
2022-08-28T07:03:06.285Z,100.00
2022-08-28T07:08:07.957Z,100.00
2022-08-28T07:13:09.529Z,100.00
2022-08-28T07:18:11.250Z,100.00
2022-08-28T07:23:13.004Z,100.00
2022-08-28T07:28:14.899Z,100.00
2022-08-28T07:33:16.536Z,100.00
2022-08-28T07:38:18.105Z,100.00
2022-08-28T07:43:38.570Z,100.00
2022-08-28T07:48:41.432Z,100.00
2022-08-28T07:53:42.994Z,100.00
2022-08-28T07:58:45.356Z,100.00
2022-08-28T08:03:47.284Z,100.00
2022-08-28T08:08:50.376Z,99.09
2022-08-28T08:13:54.158Z,98.64
2022-08-28T08:18:55.791Z,97.24
2022-08-28T08:23:59.971Z,95.78
2022-08-28T08:29:02.073Z,93.61
2022-08-28T08:34:05.697Z,92.32
2022-08-28T08:39:09.740Z,90.13
2022-08-28T08:44:33.804Z,89.61
2022-08-28T08:49:40.364Z,88.97
2022-08-28T08:54:44.323Z,88.64
2022-08-28T08:59:46.080Z,88.29
2022-08-28T09:04:57.087Z,86.78
2022-08-28T09:09:58.717Z,85.99
2022-08-28T09:15:09.865Z,84.38
2022-08-28T09:20:14.924Z,83.34
2022-08-28T09:25:47.693Z,82.79
2022-08-28T09:31:03.100Z,80.54
2022-08-28T09:36:37.902Z,80.50
2022-08-28T09:42:01.088Z,80.93
2022-08-28T09:47:02.745Z,79.65
2022-08-28T09:52:25.014Z,80.31
2022-08-28T09:57:26.956Z,77.25
2022-08-28T10:02:44.689Z,76.79
2022-08-28T10:08:05.393Z,75.08
2022-08-28T10:13:45.213Z,73.91
2022-08-28T10:18:56.383Z,74.22
2022-08-28T10:24:26.662Z,73.98
2022-08-28T10:29:59.432Z,74.20
2022-08-28T10:35:29.340Z,74.15
2022-08-28T10:40:36.042Z,74.87
2022-08-28T10:45:45.961Z,74.97
2022-08-28T10:51:00.463Z,74.93
2022-08-28T10:56:08.403Z,74.61
2022-08-28T11:01:25.975Z,74.00
2022-08-28T11:06:42.839Z,73.79
2022-08-28T11:11:48.674Z,73.09
2022-08-28T11:16:51.408Z,70.71
2022-08-28T11:22:03.116Z,70.27
2022-08-28T11:27:05.158Z,69.58
2022-08-28T11:32:31.701Z,68.31
2022-08-28T11:37:44.786Z,70.27
2022-08-28T11:42:50.117Z,68.35
2022-08-28T11:47:56.278Z,67.61
2022-08-28T11:53:21.395Z,68.78
2022-08-28T11:58:45.197Z,68.71
2022-08-28T12:04:15.088Z,65.85
2022-08-28T12:09:38.738Z,65.36
2022-08-28T12:14:42.868Z,65.91
2022-08-28T12:20:11.004Z,65.96
2022-08-28T12:25:37.831Z,63.04
2022-08-28T12:30:53.294Z,61.75
2022-08-28T12:36:02.111Z,61.95
2022-08-28T12:41:03.987Z,63.14
2022-08-28T12:46:18.891Z,63.14
2022-08-28T12:51:24.013Z,60.61
2022-08-28T12:56:29.972Z,61.31
2022-08-28T13:01:33.840Z,61.55
2022-08-28T13:06:38.505Z,60.87
2022-08-28T13:11:46.188Z,59.80
2022-08-28T13:16:47.900Z,59.39
2022-08-28T13:22:00.289Z,59.16
2022-08-28T13:27:17.941Z,58.54
2022-08-28T13:32:19.694Z,58.24
2022-08-28T13:37:49.635Z,57.47
2022-08-28T13:42:57.698Z,57.29
2022-08-28T13:47:59.553Z,55.85
2022-08-28T13:53:03.246Z,54.94
2022-08-28T13:58:04.905Z,55.08
2022-08-28T14:03:24.953Z,55.27
2022-08-28T14:08:26.533Z,55.88
2022-08-28T14:13:28.849Z,53.42
2022-08-28T14:18:30.439Z,54.23
2022-08-28T14:23:33.522Z,54.11
2022-08-28T14:28:35.251Z,54.59
2022-08-28T14:33:37.143Z,54.95
2022-08-28T14:38:38.685Z,55.20
2022-08-28T14:43:41.113Z,56.29
2022-08-28T14:48:42.685Z,55.13
2022-08-28T14:53:45.046Z,54.02
2022-08-28T15:04:48.025Z,54.73
2022-08-28T15:09:50.172Z,54.40
2022-08-28T15:14:55.295Z,54.27
2022-08-28T15:20:00.479Z,53.82
2022-08-28T15:25:03.219Z,54.45
